Time;durP1;ratioP1;P1;durP2;ratioP2;P2;SDS_P1;SDS_P2;PMS_P1;PMS_P2;Temp;Humidity;BMP_temperature;BMP_pressure;BME280_temperature;BME280_humidity;BME280_pressure;Samples;Min_cycle;Max_cycle;Signal;HPM_P1;HPM_P2
2021/11/10 00:00:09;;;;;;;25.13;13.77;;;8.00;87.60;;;;;;5055201;28;20181;-80
2021/11/10 00:02:34;;;;;;;23.80;13.73;;;7.80;90.50;;;;;;5056059;28;20169;-79
2021/11/10 00:05:00;;;;;;;23.63;13.37;;;8.00;91.00;;;;;;5055697;28;20184;-79
2021/11/10 00:07:26;;;;;;;25.37;14.83;;;8.00;88.60;;;;;;5056067;28;20633;-80
2021/11/10 00:09:52;;;;;;;29.47;15.23;;;8.30;83.20;;;;;;5055954;28;20208;-78
2021/11/10 00:12:17;;;;;;;30.27;15.70;;;8.30;77.10;;;;;;5056586;28;20197;-80
2021/11/10 00:14:43;;;;;;;27.70;16.10;;;8.40;74.40;;;;;;5038391;28;20259;-81
2021/11/10 00:17:09;;;;;;;25.90;15.47;;;8.40;75.10;;;;;;5056416;28;20629;-79
2021/11/10 00:19:34;;;;;;;27.53;14.67;;;8.40;76.60;;;;;;5055979;28;20524;-79
2021/11/10 00:22:00;;;;;;;26.47;14.70;;;8.40;79.20;;;;;;5055500;28;20191;-78
2021/11/10 00:24:26;;;;;;;26.57;14.80;;;8.30;80.40;;;;;;5055486;28;20578;-81
2021/11/10 00:26:51;;;;;;;27.40;15.43;;;8.40;80.00;;;;;;5054661;28;20203;-77
2021/11/10 00:29:17;;;;;;;24.03;13.57;;;8.40;80.80;;;;;;5037291;28;20228;-79
2021/11/10 00:31:42;;;;;;;24.07;15.03;;;8.40;81.30;;;;;;5055414;28;20633;-80
2021/11/10 00:34:08;;;;;;;28.03;14.67;;;8.30;81.50;;;;;;5055545;28;20165;-79
2021/11/10 00:36:34;;;;;;;28.33;14.50;;;8.40;81.20;;;;;;5055383;28;20505;-79
2021/11/10 00:39:00;;;;;;;25.13;15.50;;;8.50;75.60;;;;;;5055485;28;20188;-79
2021/11/10 00:41:25;;;;;;;30.40;16.13;;;8.50;70.70;;;;;;5055343;28;20169;-79
2021/11/10 00:43:51;;;;;;;29.83;15.67;;;8.50;72.00;;;;;;5054700;28;20177;-79
2021/11/10 00:46:17;;;;;;;23.83;14.63;;;8.50;68.90;;;;;;5037631;28;20191;-80
2021/11/10 00:48:43;;;;;;;30.70;15.97;;;8.60;65.60;;;;;;5055081;28;20181;-80
2021/11/10 00:51:08;;;;;;;27.07;16.20;;;8.30;67.60;;;;;;5055171;28;20215;-79
2021/11/10 00:53:34;;;;;;;28.23;15.00;;;8.30;71.80;;;;;;5055314;28;20195;-80
2021/11/10 00:56:00;;;;;;;28.67;16.63;;;8.20;76.80;;;;;;5054175;28;20176;-78
2021/11/10 00:58:26;;;;;;;27.57;15.50;;;8.20;76.00;;;;;;5055232;28;20558;-80
2021/11/10 01:00:52;;;;;;;25.33;16.17;;;8.20;75.80;;;;;;5055011;28;20208;-81
2021/11/10 01:03:19;;;;;;;32.07;16.57;;;8.00;74.10;;;;;;5054700;28;20268;-80
2021/11/10 01:05:45;;;;;;;22.63;15.20;;;7.80;81.40;;;;;;5054527;28;20176;-81
2021/11/10 01:08:11;;;;;;;25.13;15.27;;;7.60;86.10;;;;;;5054575;28;20173;-79
2021/11/10 01:10:37;;;;;;;30.57;16.20;;;7.50;90.20;;;;;;5036768;28;20232;-80
2021/11/10 01:13:04;;;;;;;27.70;15.03;;;7.40;91.20;;;;;;5054381;28;20169;-80
2021/11/10 01:15:29;;;;;;;30.50;15.60;;;7.40;92.50;;;;;;5054639;28;20169;-80
2021/11/10 01:17:55;;;;;;;26.57;14.77;;;7.30;93.40;;;;;;5054445;28;20167;-78
2021/11/10 01:20:21;;;;;;;24.30;15.33;;;7.30;93.80;;;;;;5056373;28;20173;-78
2021/11/10 01:22:46;;;;;;;23.20;15.03;;;7.50;93.10;;;;;;5044581;28;20687;-79
2021/11/10 01:25:12;;;;;;;26.30;15.33;;;7.70;90.70;;;;;;5059490;28;20173;-78
2021/11/10 01:27:38;;;;;;;25.17;14.53;;;7.70;86.80;;;;;;5042918;28;20179;-79
2021/11/10 01:30:08;;;;;;;27.47;15.57;;;7.70;87.70;;;;;;5059302;28;20212;-80
2021/11/10 01:32:35;;;;;;;24.53;15.87;;;7.30;90.10;;;;;;5057554;28;20165;-79
2021/11/10 01:35:01;;;;;;;28.07;15.13;;;7.20;92.20;;;;;;5056861;28;20211;-79
2021/11/10 01:37:27;;;;;;;20.57;14.40;;;7.20;93.00;;;;;;5055789;28;20169;-79
2021/11/10 01:39:52;;;;;;;27.23;15.10;;;7.30;93.40;;;;;;5054139;28;20234;-79
2021/11/10 01:42:18;;;;;;;24.03;15.20;;;7.30;92.90;;;;;;5053776;28;20173;-79
2021/11/10 01:44:44;;;;;;;28.40;15.27;;;7.40;93.10;;;;;;5053104;28;20169;-78
2021/11/10 01:47:12;;;;;;;23.73;14.43;;;7.20;93.30;;;;;;5053956;28;20177;-79
2021/11/10 01:49:40;;;;;;;23.60;13.10;;;7.40;93.20;;;;;;5053630;28;20173;-79
2021/11/10 01:52:07;;;;;;;20.23;13.33;;;7.40;92.20;;;;;;5053471;28;20182;-79
2021/11/10 01:54:34;;;;;;;20.43;13.20;;;7.30;91.50;;;;;;5053911;28;20307;-79
2021/11/10 01:57:01;;;;;;;23.60;13.60;;;7.40;91.40;;;;;;5053554;28;20176;-79
2021/11/10 01:59:34;;;;;;;19.73;12.43;;;7.50;86.30;;;;;;5053780;28;20248;-79
2021/11/10 02:02:08;;;;;;;28.07;13.27;;;7.40;83.40;;;;;;5053895;28;20665;-80
2021/11/10 02:04:37;;;;;;;25.90;13.10;;;7.30;84.60;;;;;;5053662;28;20250;-80
2021/11/10 02:07:04;;;;;;;21.90;12.93;;;7.20;88.90;;;;;;5053116;28;20519;-79
2021/11/10 02:09:30;;;;;;;20.43;11.63;;;7.20;90.40;;;;;;5053388;28;20180;-79
2021/11/10 02:11:57;;;;;;;24.47;13.13;;;7.20;90.00;;;;;;5053419;28;20169;-78
2021/11/10 02:14:25;;;;;;;23.03;12.40;;;7.30;90.30;;;;;;5054396;28;20169;-79
2021/11/10 02:16:52;;;;;;;23.80;13.70;;;7.40;90.20;;;;;;5054642;28;20223;-78
2021/11/10 02:19:18;;;;;;;23.67;12.30;;;7.50;87.90;;;;;;5055694;28;20234;-79
2021/11/10 02:21:48;;;;;;;21.77;13.40;;;7.30;87.30;;;;;;5054275;28;20655;-79
2021/11/10 02:24:15;;;;;;;21.50;12.63;;;7.20;87.80;;;;;;5053319;28;20243;-78
2021/11/10 02:26:43;;;;;;;22.97;12.73;;;7.20;88.70;;;;;;5053092;28;20181;-80
2021/11/10 02:29:21;;;;;;;19.70;13.23;;;7.40;88.30;;;;;;5052825;28;20259;-80
2021/11/10 02:31:47;;;;;;;22.87;12.67;;;7.50;83.50;;;;;;5053043;28;20700;-78
2021/11/10 02:34:13;;;;;;;27.97;13.37;;;7.60;75.50;;;;;;5053198;28;20565;-79
2021/11/10 02:36:40;;;;;;;23.77;14.23;;;7.70;71.20;;;;;;5053342;28;20203;-78
2021/11/10 02:39:08;;;;;;;24.33;13.70;;;7.60;68.40;;;;;;5052977;28;20165;-78
2021/11/10 02:41:34;;;;;;;25.23;14.03;;;7.70;64.50;;;;;;5052988;28;20173;-78
2021/11/10 02:44:00;;;;;;;21.17;13.27;;;7.50;66.70;;;;;;5053174;28;20698;-78
2021/11/10 02:46:26;;;;;;;26.27;13.37;;;7.40;73.20;;;;;;5053183;28;20169;-80
2021/11/10 02:48:52;;;;;;;23.77;12.80;;;7.40;77.50;;;;;;5052931;28;20629;-78
2021/11/10 02:51:18;;;;;;;22.17;12.07;;;7.30;79.40;;;;;;5053258;28;20278;-80
2021/11/10 02:53:44;;;;;;;23.07;12.67;;;7.20;82.30;;;;;;5052933;28;20516;-80
2021/11/10 02:56:10;;;;;;;21.50;13.03;;;7.00;86.30;;;;;;5052784;28;20650;-79
2021/11/10 02:58:37;;;;;;;22.37;13.50;;;6.90;89.60;;;;;;5052808;28;20628;-79
2021/11/10 03:01:06;;;;;;;22.07;13.00;;;6.90;90.60;;;;;;5052956;28;20164;-79
2021/11/10 03:03:32;;;;;;;21.13;13.33;;;7.00;90.20;;;;;;5052901;28;20651;-79
2021/11/10 03:05:58;;;;;;;19.23;11.80;;;6.70;90.40;;;;;;5053111;28;20161;-79
2021/11/10 03:08:24;;;;;;;19.90;12.13;;;6.70;91.90;;;;;;5053054;28;20248;-79
2021/11/10 03:10:51;;;;;;;19.77;12.87;;;6.70;91.30;;;;;;5052792;28;20292;-78
2021/11/10 03:13:17;;;;;;;22.40;14.13;;;6.60;91.30;;;;;;5053076;28;20176;-79
2021/11/10 03:15:44;;;;;;;19.90;11.90;;;6.70;91.80;;;;;;5052368;28;20181;-80
2021/11/10 03:18:11;;;;;;;22.07;13.50;;;6.40;92.70;;;;;;5053388;28;20621;-79
2021/11/10 03:20:37;;;;;;;23.73;13.47;;;6.70;93.60;;;;;;5056806;28;20169;-79
2021/11/10 03:23:04;;;;;;;19.83;12.47;;;6.60;92.50;;;;;;5057100;28;20513;-79
2021/11/10 03:25:29;;;;;;;21.87;13.23;;;6.40;92.90;;;;;;5056599;28;20189;-79
2021/11/10 03:27:55;;;;;;;24.17;13.13;;;6.50;93.50;;;;;;5057347;28;20180;-80
2021/11/10 03:30:21;;;;;;;20.87;13.27;;;6.80;93.60;;;;;;5056920;28;20224;-79
2021/11/10 03:32:47;;;;;;;24.97;13.93;;;6.70;92.30;;;;;;5057098;28;20248;-78
2021/11/10 03:35:13;;;;;;;24.67;13.27;;;6.50;92.00;;;;;;5056643;28;20260;-80
2021/11/10 03:37:41;;;;;;;23.73;12.60;;;6.40;92.70;;;;;;5056469;28;20169;-80
2021/11/10 03:40:08;;;;;;;24.47;13.33;;;6.50;93.80;;;;;;5038188;28;20185;-79
2021/11/10 03:42:34;;;;;;;22.50;13.23;;;6.70;92.90;;;;;;5056477;28;20177;-80
2021/11/10 03:45:00;;;;;;;19.27;12.77;;;6.60;92.40;;;;;;5056289;28;20295;-79
2021/11/10 03:47:26;;;;;;;23.97;13.90;;;6.70;92.60;;;;;;5056474;28;20532;-80
2021/11/10 03:49:52;;;;;;;23.97;13.57;;;6.80;92.10;;;;;;5038332;28;20664;-80
2021/11/10 03:52:18;;;;;;;25.60;13.07;;;6.80;92.00;;;;;;5038488;28;20175;-79
2021/11/10 03:54:45;;;;;;;28.33;13.97;;;6.80;91.50;;;;;;5056316;28;20527;-79
2021/11/10 03:57:11;;;;;;;20.97;12.57;;;6.90;91.60;;;;;;5056822;28;20176;-80
2021/11/10 03:59:38;;;;;;;22.53;12.67;;;7.00;91.30;;;;;;5056037;28;20168;-79
2021/11/10 04:02:05;;;;;;;22.33;12.90;;;6.90;90.80;;;;;;5055969;28;20165;-80
2021/11/10 04:04:31;;;;;;;20.83;12.90;;;7.00;90.30;;;;;;5056058;28;20169;-79
2021/11/10 04:06:56;;;;;;;18.33;12.87;;;7.20;86.80;;;;;;5055596;28;20248;-79
2021/11/10 04:09:22;;;;;;;22.37;13.00;;;7.20;81.10;;;;;;5038064;28;20181;-79
2021/11/10 04:11:48;;;;;;;20.33;13.30;;;7.10;78.90;;;;;;5055732;28;20215;-80
2021/11/10 04:14:14;;;;;;;25.90;13.73;;;7.00;81.80;;;;;;5055726;28;20633;-79
2021/11/10 04:16:40;;;;;;;20.53;12.90;;;6.90;86.30;;;;;;5055744;28;20173;-79
2021/11/10 04:19:06;;;;;;;22.30;13.47;;;6.80;85.70;;;;;;5055863;28;20616;-79
2021/11/10 04:21:32;;;;;;;25.80;14.50;;;7.00;82.80;;;;;;5055463;28;20400;-79
2021/11/10 04:23:59;;;;;;;31.43;14.43;;;7.20;77.20;;;;;;5055589;28;20255;-79
2021/11/10 04:26:30;;;;;;;26.90;14.50;;;7.00;75.30;;;;;;5055727;28;20544;-79
2021/11/10 04:28:56;;;;;;;24.73;15.30;;;7.00;74.20;;;;;;5055700;28;20169;-78
2021/11/10 04:31:23;;;;;;;24.37;15.43;;;7.00;76.30;;;;;;5054820;28;20299;-78
2021/11/10 04:33:49;;;;;;;25.10;14.67;;;7.00;76.50;;;;;;5054936;28;20158;-79
2021/11/10 04:36:15;;;;;;;25.60;15.03;;;7.00;77.30;;;;;;5055559;28;20238;-81
2021/11/10 04:38:41;;;;;;;26.20;13.43;;;6.90;79.90;;;;;;5056889;28;20165;-80
2021/11/10 04:41:06;;;;;;;24.17;15.03;;;6.90;84.60;;;;;;5067176;28;20230;-79
2021/11/10 04:43:32;;;;;;;24.40;14.00;;;6.90;86.80;;;;;;5058536;28;20169;-79
2021/11/10 04:46:09;;;;;;;28.83;15.23;;;6.80;89.40;;;;;;5061547;28;20169;-78
2021/11/10 04:48:39;;;;;;;30.17;14.23;;;6.90;90.00;;;;;;5064394;28;20170;-79
2021/11/10 04:51:06;;;;;;;22.37;14.03;;;6.70;90.10;;;;;;5064997;28;20235;-78
2021/11/10 04:53:39;;;;;;;30.10;14.83;;;6.80;91.50;;;;;;5068769;28;20169;-78
2021/11/10 04:56:05;;;;;;;30.77;14.30;;;6.90;90.60;;;;;;5069037;28;20228;-78
2021/11/10 04:58:31;;;;;;;27.50;13.53;;;6.90;87.80;;;;;;5068791;28;20165;-78
2021/11/10 05:00:57;;;;;;;28.40;14.67;;;6.90;85.70;;;;;;5065518;28;20617;-79
2021/11/10 05:03:24;;;;;;;26.20;14.50;;;7.00;86.30;;;;;;5069940;28;20196;-79
2021/11/10 05:05:50;;;;;;;25.60;13.50;;;6.70;89.00;;;;;;5069325;28;20173;-77
2021/11/10 05:08:18;;;;;;;25.93;14.10;;;6.70;90.60;;;;;;5046864;28;20682;-78
2021/11/10 05:10:44;;;;;;;26.90;14.27;;;6.70;90.00;;;;;;5070884;28;20223;-77
2021/11/10 05:13:09;;;;;;;29.07;15.03;;;6.50;91.30;;;;;;5065923;28;20193;-79
2021/11/10 05:15:35;;;;;;;25.67;14.60;;;6.70;91.90;;;;;;5067040;28;20232;-78
2021/11/10 05:18:01;;;;;;;28.97;14.57;;;6.90;90.00;;;;;;5066453;28;20165;-79
2021/11/10 05:20:27;;;;;;;29.47;15.97;;;7.00;85.70;;;;;;5062465;28;20175;-77
2021/11/10 05:22:53;;;;;;;22.67;14.77;;;7.00;82.60;;;;;;5056427;28;20169;-79
2021/11/10 05:25:19;;;;;;;27.10;14.90;;;6.80;84.60;;;;;;5054492;28;20250;-80
2021/11/10 05:27:45;;;;;;;26.83;14.73;;;6.70;89.60;;;;;;5054948;28;20567;-78
2021/11/10 05:30:12;;;;;;;26.47;15.80;;;6.60;91.20;;;;;;5053851;28;20301;-80
2021/11/10 05:32:41;;;;;;;22.87;14.87;;;6.80;91.70;;;;;;5036027;28;20829;-79
2021/11/10 05:35:08;;;;;;;25.20;13.60;;;6.80;88.70;;;;;;5053575;28;20173;-78
2021/11/10 05:37:33;;;;;;;27.10;14.63;;;6.70;88.10;;;;;;5054206;28;20171;-78
2021/11/10 05:39:59;;;;;;;27.43;14.50;;;6.70;90.40;;;;;;5053880;28;20267;-79
2021/11/10 05:42:26;;;;;;;23.23;14.30;;;6.70;91.50;;;;;;5054078;28;20636;-79
2021/11/10 05:44:53;;;;;;;26.33;14.10;;;6.60;92.20;;;;;;5053972;28;20173;-80
2021/11/10 05:47:20;;;;;;;23.83;14.57;;;6.60;92.10;;;;;;5053710;28;20704;-80
2021/11/10 05:49:46;;;;;;;27.53;14.67;;;6.50;92.20;;;;;;5053591;28;20169;-77
2021/11/10 05:52:12;;;;;;;25.13;14.77;;;6.60;92.50;;;;;;5054053;28;20651;-80
2021/11/10 05:54:39;;;;;;;23.23;13.57;;;6.60;92.30;;;;;;5053951;28;20180;-79
2021/11/10 05:57:07;;;;;;;22.53;14.13;;;6.60;91.90;;;;;;5053885;28;20256;-78
2021/11/10 05:59:33;;;;;;;21.33;14.03;;;6.70;92.10;;;;;;5053580;28;20161;-79
2021/11/10 06:02:00;;;;;;;27.30;15.17;;;6.60;91.70;;;;;;5053946;28;20649;-80
2021/11/10 06:04:26;;;;;;;25.33;13.87;;;6.70;91.60;;;;;;5053511;28;20177;-78
2021/11/10 06:06:52;;;;;;;24.50;15.20;;;6.80;87.30;;;;;;5053735;28;20246;-79
2021/11/10 06:09:18;;;;;;;26.70;15.57;;;7.10;78.00;;;;;;5053283;28;20633;-79
2021/11/10 06:11:45;;;;;;;28.80;15.73;;;7.00;75.00;;;;;;5053582;28;20216;-79
2021/11/10 06:14:12;;;;;;;27.60;16.50;;;7.00;71.80;;;;;;5053322;28;20380;-80
2021/11/10 06:16:38;;;;;;;31.73;16.27;;;7.00;70.80;;;;;;5053556;28;20671;-79
2021/11/10 06:19:04;;;;;;;27.37;15.60;;;6.90;74.30;;;;;;5053444;28;20526;-80
2021/11/10 06:21:30;;;;;;;31.03;15.70;;;6.80;79.20;;;;;;5053292;28;20291;-80
2021/11/10 06:23:55;;;;;;;23.93;15.57;;;6.60;84.30;;;;;;5053371;28;20528;-79
2021/11/10 06:26:21;;;;;;;29.07;15.23;;;6.60;89.90;;;;;;5053297;28;20196;-78
2021/11/10 06:28:48;;;;;;;26.23;14.43;;;6.60;87.30;;;;;;5053169;28;20168;-79
2021/11/10 06:31:14;;;;;;;24.50;14.13;;;6.30;89.90;;;;;;5053212;28;20196;-81
2021/11/10 06:33:40;;;;;;;26.83;15.37;;;6.00;92.90;;;;;;5053180;28;20560;-79
2021/11/10 06:36:06;;;;;;;24.70;14.40;;;6.00;95.60;;;;;;5053221;28;20253;-81
2021/11/10 06:38:32;;;;;;;27.70;15.17;;;6.00;95.60;;;;;;5053287;28;20177;-80
2021/11/10 06:40:58;;;;;;;24.10;14.03;;;5.80;96.20;;;;;;5053782;28;20209;-80
2021/11/10 06:43:25;;;;;;;27.27;14.57;;;5.80;97.50;;;;;;5035176;28;20233;-80
2021/11/10 06:45:52;;;;;;;29.43;15.13;;;5.80;97.90;;;;;;5053962;28;20172;-81
2021/11/10 06:48:17;;;;;;;26.67;15.17;;;5.80;98.20;;;;;;5052906;28;20529;-80
2021/11/10 06:50:43;;;;;;;26.60;15.33;;;5.90;98.40;;;;;;5053098;28;20173;-80
2021/11/10 06:53:09;;;;;;;25.57;15.23;;;5.90;97.50;;;;;;5052882;28;20169;-80
2021/11/10 06:55:36;;;;;;;26.87;14.70;;;5.90;97.20;;;;;;5052749;28;20168;-80
2021/11/10 06:58:02;;;;;;;24.47;15.33;;;5.90;97.20;;;;;;5053138;28;20493;-78
2021/11/10 07:00:27;;;;;;;25.00;14.83;;;6.00;96.40;;;;;;5052933;28;20201;-79
2021/11/10 07:02:53;;;;;;;31.03;15.03;;;6.10;96.50;;;;;;5053611;28;20161;-80
2021/11/10 07:05:19;;;;;;;28.30;15.57;;;6.00;96.00;;;;;;5053955;28;20169;-80
2021/11/10 07:07:45;;;;;;;24.33;14.90;;;6.20;95.80;;;;;;5054023;28;20184;-80
2021/11/10 07:10:11;;;;;;;27.00;15.23;;;6.20;94.70;;;;;;5071996;28;20287;-81
2021/11/10 07:12:37;;;;;;;27.67;15.90;;;6.10;94.90;;;;;;5074031;28;20175;-80
2021/11/10 07:15:03;;;;;;;32.57;16.33;;;6.10;95.90;;;;;;5073297;28;20172;-80
2021/11/10 07:17:29;;;;;;;26.70;15.63;;;6.10;95.50;;;;;;5073022;28;20176;-80
2021/11/10 07:19:54;;;;;;;39.90;22.60;;;6.10;96.00;;;;;;5070946;28;20211;-81
2021/11/10 07:22:20;;;;;;;29.60;16.03;;;6.20;95.90;;;;;;5072494;28;20217;-81
2021/11/10 07:24:46;;;;;;;32.10;15.67;;;6.30;96.10;;;;;;5072814;28;20179;-81
2021/11/10 07:27:12;;;;;;;25.90;15.47;;;6.30;95.50;;;;;;5052258;28;20287;-81
2021/11/10 07:29:38;;;;;;;24.50;14.07;;;6.30;95.30;;;;;;5034429;28;20565;-80
2021/11/10 07:32:04;;;;;;;28.20;14.20;;;6.30;95.20;;;;;;5060924;28;20633;-79
2021/11/10 07:34:30;;;;;;;28.37;16.13;;;6.30;94.90;;;;;;5052916;28;20165;-81
2021/11/10 07:36:56;;;;;;;30.80;16.10;;;6.30;95.50;;;;;;5058199;28;20628;-79
2021/11/10 07:39:21;;;;;;;29.57;14.33;;;6.40;95.50;;;;;;5055593;28;20173;-80
2021/11/10 07:41:49;;;;;;;27.23;15.10;;;6.30;95.50;;;;;;5055972;28;20197;-80
2021/11/10 07:44:15;;;;;;;29.60;15.67;;;6.40;94.70;;;;;;5056525;28;20172;-79
2021/11/10 07:46:50;;;;;;;27.50;14.67;;;6.50;94.30;;;;;;5036191;28;20173;-78
2021/11/10 07:49:20;;;;;;;26.43;14.77;;;6.60;93.90;;;;;;5052526;28;20640;-79
2021/11/10 07:51:47;;;;;;;22.77;13.53;;;6.60;93.00;;;;;;5056649;28;20633;-80
2021/11/10 07:54:13;;;;;;;25.87;14.57;;;6.70;92.00;;;;;;5072432;28;20173;-81
2021/11/10 07:56:39;;;;;;;25.53;13.77;;;6.80;90.10;;;;;;5064344;28;20241;-81
2021/11/10 07:59:05;;;;;;;30.17;15.13;;;7.10;75.70;;;;;;5052277;28;20181;-81
2021/11/10 08:01:32;;;;;;;28.93;15.47;;;7.20;66.70;;;;;;5052448;28;20217;-79
2021/11/10 08:04:04;;;;;;;28.80;16.33;;;7.20;67.80;;;;;;5034655;28;20173;-80
2021/11/10 08:06:31;;;;;;;31.03;16.07;;;7.20;68.60;;;;;;5036419;28;20187;-80
2021/11/10 08:08:57;;;;;;;26.83;15.43;;;7.20;72.00;;;;;;5055668;28;20223;-82
2021/11/10 08:11:22;;;;;;;29.07;16.27;;;7.30;74.60;;;;;;5056502;28;20177;-82
2021/11/10 08:13:48;;;;;;;23.17;15.23;;;7.20;78.40;;;;;;5038089;28;20177;-80
2021/11/10 08:16:14;;;;;;;27.07;15.33;;;7.30;78.70;;;;;;5055836;28;20595;-80
2021/11/10 08:18:40;;;;;;;23.77;16.27;;;7.40;78.30;;;;;;5037816;28;20180;-80
2021/11/10 08:21:05;;;;;;;28.07;16.17;;;7.50;74.60;;;;;;5055711;28;20664;-80
2021/11/10 08:23:31;;;;;;;29.60;15.57;;;7.60;72.10;;;;;;5055756;28;20181;-80
2021/11/10 08:25:58;;;;;;;29.83;15.20;;;7.60;70.60;;;;;;5055369;28;20254;-81
2021/11/10 08:28:26;;;;;;;27.97;14.77;;;7.70;68.90;;;;;;5055980;28;20172;-79
2021/11/10 08:30:52;;;;;;;26.30;14.00;;;7.70;65.90;;;;;;5060574;28;20251;-78
2021/11/10 08:33:19;;;;;;;40.30;16.83;;;7.80;61.40;;;;;;5066803;28;20165;-81
2021/11/10 08:35:48;;;;;;;32.20;15.57;;;7.80;56.80;;;;;;5068527;28;20184;-81
2021/11/10 08:38:15;;;;;;;31.27;15.10;;;7.90;54.60;;;;;;5066019;28;20187;-79
2021/11/10 08:40:42;;;;;;;32.23;15.00;;;7.80;54.00;;;;;;5060923;28;20216;-79
2021/11/10 08:43:11;;;;;;;29.53;14.77;;;7.70;55.80;;;;;;5058120;28;20165;-81
2021/11/10 08:45:38;;;;;;;27.30;14.53;;;7.60;59.00;;;;;;5055737;28;20498;-80
2021/11/10 08:48:05;;;;;;;31.60;15.70;;;7.50;60.90;;;;;;5037891;28;20529;-81
2021/11/10 08:50:36;;;;;;;35.17;15.33;;;7.40;65.20;;;;;;5055545;28;20165;-82
2021/11/10 08:53:04;;;;;;;32.43;16.23;;;7.60;64.80;;;;;;5057103;28;20169;-83
2021/11/10 08:55:30;;;;;;;33.93;14.47;;;7.80;55.30;;;;;;5067985;28;20162;-87
2021/11/10 08:57:56;;;;;;;25.67;13.60;;;7.80;51.40;;;;;;5069717;28;20173;-82
2021/11/10 09:00:25;;;;;;;26.87;14.37;;;7.90;54.20;;;;;;5061689;28;20236;-84
2021/11/10 09:02:52;;;;;;;24.67;13.33;;;7.80;50.60;;;;;;5072314;28;20183;-81
2021/11/10 09:05:20;;;;;;;25.20;13.80;;;7.80;45.80;;;;;;5061330;28;20161;-83
2021/11/10 09:07:46;;;;;;;22.70;13.47;;;7.80;51.10;;;;;;5059060;28;20184;-87
2021/11/10 09:10:14;;;;;;;18.10;12.30;;;7.70;53.20;;;;;;5059659;28;20184;-82
2021/11/10 09:12:42;;;;;;;22.63;12.60;;;7.80;52.00;;;;;;5069669;28;20197;-82
2021/11/10 09:15:12;;;;;;;21.67;12.57;;;7.90;48.40;;;;;;5069329;28;20589;-83
2021/11/10 09:17:39;;;;;;;22.27;12.60;;;7.80;49.70;;;;;;5037297;28;20203;-83
2021/11/10 09:20:10;;;;;;;22.70;13.47;;;7.90;50.80;;;;;;5038804;28;20204;-82
2021/11/10 09:22:38;;;;;;;25.23;14.13;;;7.90;49.10;;;;;;5025425;28;20264;-84
2021/11/10 09:25:05;;;;;;;26.47;14.00;;;7.90;47.30;;;;;;5042287;28;20207;-82
2021/11/10 09:27:31;;;;;;;25.07;14.10;;;8.00;49.30;;;;;;5064533;28;20233;-83
2021/11/10 09:29:56;;;;;;;33.03;14.00;;;8.00;47.80;;;;;;5061447;28;20235;-83
2021/11/10 09:32:22;;;;;;;25.03;14.20;;;8.30;42.70;;;;;;5056964;28;20612;-82
2021/11/10 09:34:48;;;;;;;25.77;14.27;;;8.50;33.60;;;;;;5039963;28;20236;-81
2021/11/10 09:37:14;;;;;;;31.07;15.27;;;8.40;29.70;;;;;;5057498;28;20168;-83
2021/11/10 09:39:39;;;;;;;36.57;15.80;;;8.50;26.00;;;;;;5054984;28;20180;-83
2021/11/10 09:42:06;;;;;;;27.33;13.97;;;8.60;18.80;;;;;;5055633;28;20231;-85
2021/11/10 09:44:33;;;;;;;24.13;13.37;;;8.60;10.40;;;;;;5039448;28;20169;-83
2021/11/10 09:47:00;;;;;;;27.40;13.73;;;8.60;18.70;;;;;;5037575;28;20188;-77
2021/11/10 09:49:26;;;;;;;23.00;14.33;;;8.70;22.90;;;;;;5061821;28;20181;-87
2021/11/10 09:51:52;;;;;;;22.27;14.40;;;8.80;27.90;;;;;;5064893;28;20223;-79
2021/11/10 09:54:18;;;;;;;23.87;14.00;;;8.90;23.60;;;;;;5064492;28;20165;-79
2021/11/10 09:56:46;;;;;;;24.03;15.67;;;9.10;14.40;;;;;;5068444;28;20161;-76
2021/11/10 09:59:12;;;;;;;29.87;16.03;;;9.50;2.00;;;;;;5070468;28;20177;-80
2021/11/10 10:01:40;;;;;;;29.03;16.27;;;9.30;1.00;;;;;;5059606;28;20273;-77
2021/11/10 10:04:08;;;;;;;25.70;14.47;;;9.40;1.00;;;;;;5058752;28;20165;-77
2021/11/10 10:06:35;;;;;;;26.00;16.60;;;9.70;1.00;;;;;;5059540;28;20173;-77
2021/11/10 10:09:01;;;;;;;33.33;15.77;;;9.80;1.00;;;;;;5058221;28;20165;-73
2021/11/10 10:11:28;;;;;;;28.03;17.03;;;9.90;1.00;;;;;;5055933;28;20200;-81
2021/11/10 10:13:54;;;;;;;29.50;15.53;;;10.10;1.00;;;;;;5045719;28;20268;-81
2021/11/10 10:16:21;;;;;;;26.70;15.20;;;9.50;1.00;;;;;;5057261;28;20180;-83
2021/11/10 10:18:47;;;;;;;26.97;15.80;;;9.20;1.00;;;;;;5060891;28;20171;-81
2021/11/10 10:21:14;;;;;;;25.93;15.03;;;9.10;1.00;;;;;;5060134;28;20208;-82
2021/11/10 10:23:43;;;;;;;31.23;16.07;;;9.20;1.00;;;;;;5037424;28;20169;-81
2021/11/10 10:26:17;;;;;;;26.50;15.13;;;9.40;1.00;;;;;;5036541;28;20247;-82
2021/11/10 10:28:51;;;;;;;28.53;15.60;;;9.50;1.00;;;;;;5035185;28;20263;-81
2021/11/10 10:31:26;;;;;;;29.80;14.97;;;9.60;1.00;;;;;;5054522;28;20212;-81
2021/11/10 10:33:58;;;;;;;27.77;15.97;;;9.60;1.00;;;;;;5036449;28;20558;-82
2021/11/10 10:36:30;;;;;;;28.77;16.50;;;9.40;1.00;;;;;;5054440;28;20196;-81
2021/11/10 10:39:00;;;;;;;27.10;16.80;;;9.40;1.00;;;;;;5053755;28;20179;-82
2021/11/10 10:41:40;;;;;;;29.30;17.17;;;9.50;1.00;;;;;;5054015;28;20213;-81
2021/11/10 10:44:09;;;;;;;33.37;17.67;;;9.50;1.00;;;;;;5053703;28;20219;-83
2021/11/10 10:46:38;;;;;;;28.87;16.73;;;9.60;1.00;;;;;;5035143;28;20168;-82
2021/11/10 10:49:20;;;;;;;33.43;18.77;;;9.70;1.00;;;;;;5052364;28;20176;-83
2021/11/10 10:51:54;;;;;;;27.97;18.30;;;9.80;1.00;;;;;;5034502;28;20169;-82
2021/11/10 10:54:30;;;;;;;27.47;17.00;;;9.80;1.00;;;;;;5038950;28;20172;-81
2021/11/10 10:56:59;;;;;;;26.77;15.63;;;9.70;1.00;;;;;;5042476;28;20177;-81
2021/11/10 10:59:26;;;;;;;30.73;21.07;;;9.70;1.00;;;;;;5039293;28;20177;-82
2021/11/10 11:01:54;;;;;;;29.17;16.30;;;9.70;1.00;;;;;;5041059;28;20303;-81
2021/11/10 11:04:22;;;;;;;30.33;16.07;;;9.80;1.00;;;;;;5039220;28;20177;-81
2021/11/10 11:07:02;;;;;;;25.60;16.50;;;10.10;1.00;;;;;;5041971;28;20192;-80
2021/11/10 11:09:32;;;;;;;25.63;16.20;;;10.00;1.00;;;;;;5058201;28;20333;-81
2021/11/10 11:17:23;;;;;;;29.87;16.23;;;9.90;1.00;;;;;;5055157;28;20636;-82
2021/11/10 11:19:57;;;;;;;29.77;17.33;;;10.10;1.00;;;;;;5053924;28;20176;-84
2021/11/10 11:22:44;;;;;;;27.43;15.97;;;10.00;1.00;;;;;;5035265;28;20187;-82
2021/11/10 11:25:25;;;;;;;33.97;18.13;;;10.10;1.00;;;;;;5020973;28;20204;-81
2021/11/10 11:28:03;;;;;;;26.77;17.23;;;10.30;1.00;;;;;;5053340;28;20179;-82
2021/11/10 11:30:38;;;;;;;30.53;15.93;;;10.40;1.00;;;;;;5035303;28;20196;-84
2021/11/10 11:33:09;;;;;;;25.93;16.60;;;10.40;1.00;;;;;;5053354;28;20192;-83
2021/11/10 11:35:37;;;;;;;24.00;14.83;;;10.40;1.00;;;;;;5053031;28;20172;-81
2021/11/10 11:38:08;;;;;;;23.27;14.80;;;10.40;1.00;;;;;;5035373;28;20188;-82
2021/11/10 11:40:35;;;;;;;22.80;15.87;;;10.50;1.00;;;;;;5038622;28;20213;-81
2021/11/10 11:43:03;;;;;;;24.47;15.33;;;10.50;1.00;;;;;;5022850;28;20177;-83
2021/11/10 11:45:32;;;;;;;22.97;15.47;;;10.80;1.00;;;;;;5039276;28;20181;-81
2021/11/10 11:47:59;;;;;;;24.53;15.90;;;10.90;1.00;;;;;;5039337;28;20201;-83
2021/11/10 11:50:25;;;;;;;22.77;14.63;;;11.10;1.00;;;;;;5039208;28;20191;-82
2021/11/10 11:52:52;;;;;;;28.07;14.97;;;11.00;1.00;;;;;;5056561;28;20173;-82
2021/11/10 11:55:26;;;;;;;26.93;14.83;;;11.10;1.00;;;;;;5039229;28;20169;-82
2021/11/10 11:58:17;;;;;;;22.40;13.73;;;11.20;1.00;;;;;;5057017;28;20168;-81
2021/11/10 12:01:14;;;;;;;23.47;14.77;;;11.30;1.00;;;;;;5032513;28;20205;-82
2021/11/10 12:03:44;;;;;;;22.13;13.73;;;11.40;1.00;;;;;;5042566;28;20272;-83
2021/11/10 12:06:10;;;;;;;23.23;13.90;;;11.50;1.00;;;;;;5054194;28;20200;-81
2021/11/10 12:08:52;;;;;;;20.70;14.20;;;11.70;1.00;;;;;;5075325;28;20177;-79
2021/11/10 12:11:33;;;;;;;21.87;15.20;;;11.90;1.00;;;;;;5057861;28;20184;-81
2021/11/10 12:14:19;;;;;;;24.63;14.83;;;12.00;1.00;;;;;;5054826;28;20307;-80
2021/11/10 12:16:46;;;;;;;27.17;15.57;;;12.20;1.00;;;;;;5076969;28;20208;-81
2021/11/10 12:19:33;;;;;;;28.40;15.93;;;12.10;1.00;;;;;;5079019;28;20207;-82
2021/11/10 12:22:19;;;;;;;26.20;16.03;;;12.00;1.00;;;;;;5079217;28;20188;-82
2021/11/10 12:25:02;;;;;;;28.30;15.40;;;11.80;1.00;;;;;;5062034;28;20168;-81
2021/11/10 12:27:31;;;;;;;23.57;15.60;;;11.80;1.00;;;;;;5066072;28;20206;-78
2021/11/10 12:30:23;;;;;;;27.87;15.03;;;11.80;1.00;;;;;;5077668;28;20183;-81
2021/11/10 12:32:59;;;;;;;26.60;15.53;;;11.90;1.00;;;;;;5058178;28;20233;-82
2021/11/10 12:35:39;;;;;;;24.80;15.10;;;12.20;1.00;;;;;;5079141;28;20191;-82
2021/11/10 12:38:14;;;;;;;25.80;14.10;;;12.00;1.00;;;;;;5061549;28;20191;-82
2021/11/10 12:40:53;;;;;;;20.73;14.03;;;12.00;1.00;;;;;;5077798;28;20222;-82
2021/11/10 12:43:21;;;;;;;21.63;15.07;;;12.00;1.00;;;;;;5099088;28;20247;-80
2021/11/10 12:45:50;;;;;;;25.00;15.27;;;12.20;1.00;;;;;;5085754;28;20164;-82